sensor_id;sensor_type;location;lat;lon;timestamp;P1;durP1;ratioP1;P2;durP2;ratioP2
14088;SDS011;7120;52.890;6.040;2023-01-20T00:00:07;180.27;;;171.20;;
14088;SDS011;7120;52.890;6.040;2023-01-20T00:02:33;250.80;;;238.40;;
14088;SDS011;7120;52.890;6.040;2023-01-20T00:04:58;208.10;;;197.73;;
14088;SDS011;7120;52.890;6.040;2023-01-20T00:07:23;193.57;;;183.40;;
14088;SDS011;7120;52.890;6.040;2023-01-20T00:09:49;234.80;;;223.17;;
14088;SDS011;7120;52.890;6.040;2023-01-20T00:12:14;232.30;;;220.53;;
14088;SDS011;7120;52.890;6.040;2023-01-20T00:14:39;244.37;;;231.63;;
14088;SDS011;7120;52.890;6.040;2023-01-20T00:17:05;229.70;;;218.43;;
14088;SDS011;7120;52.890;6.040;2023-01-20T00:19:30;212.37;;;201.60;;
14088;SDS011;7120;52.890;6.040;2023-01-20T00:21:55;230.83;;;218.83;;
14088;SDS011;7120;52.890;6.040;2023-01-20T00:24:22;228.47;;;216.80;;
14088;SDS011;7120;52.890;6.040;2023-01-20T00:26:47;158.47;;;150.37;;
14088;SDS011;7120;52.890;6.040;2023-01-20T00:29:13;196.43;;;186.43;;
14088;SDS011;7120;52.890;6.040;2023-01-20T00:31:38;222.17;;;211.37;;
14088;SDS011;7120;52.890;6.040;2023-01-20T00:34:03;226.57;;;214.47;;
14088;SDS011;7120;52.890;6.040;2023-01-20T00:36:30;128.23;;;121.23;;
14088;SDS011;7120;52.890;6.040;2023-01-20T00:38:56;244.97;;;232.83;;
14088;SDS011;7120;52.890;6.040;2023-01-20T00:41:22;257.30;;;243.87;;
14088;SDS011;7120;52.890;6.040;2023-01-20T00:43:47;209.03;;;197.80;;
14088;SDS011;7120;52.890;6.040;2023-01-20T00:46:13;224.00;;;212.67;;
14088;SDS011;7120;52.890;6.040;2023-01-20T00:48:39;236.27;;;223.87;;
14088;SDS011;7120;52.890;6.040;2023-01-20T00:51:05;207.27;;;196.37;;
14088;SDS011;7120;52.890;6.040;2023-01-20T00:53:31;222.93;;;211.43;;
14088;SDS011;7120;52.890;6.040;2023-01-20T00:55:57;212.97;;;201.67;;
14088;SDS011;7120;52.890;6.040;2023-01-20T00:58:22;206.83;;;195.40;;
14088;SDS011;7120;52.890;6.040;2023-01-20T01:00:49;145.33;;;136.87;;
14088;SDS011;7120;52.890;6.040;2023-01-20T01:03:15;217.63;;;206.03;;
14088;SDS011;7120;52.890;6.040;2023-01-20T01:05:41;244.33;;;231.47;;
14088;SDS011;7120;52.890;6.040;2023-01-20T01:08:06;135.60;;;127.47;;
14088;SDS011;7120;52.890;6.040;2023-01-20T01:10:33;219.80;;;207.33;;
14088;SDS011;7120;52.890;6.040;2023-01-20T01:13:00;200.03;;;188.73;;
14088;SDS011;7120;52.890;6.040;2023-01-20T01:15:26;226.30;;;213.77;;
14088;SDS011;7120;52.890;6.040;2023-01-20T01:17:52;164.03;;;154.77;;
14088;SDS011;7120;52.890;6.040;2023-01-20T01:20:18;124.10;;;116.30;;
14088;SDS011;7120;52.890;6.040;2023-01-20T01:22:43;116.80;;;109.43;;
14088;SDS011;7120;52.890;6.040;2023-01-20T01:25:09;91.17;;;84.97;;
14088;SDS011;7120;52.890;6.040;2023-01-20T01:27:34;145.80;;;137.33;;
14088;SDS011;7120;52.890;6.040;2023-01-20T01:30:00;160.37;;;151.23;;
14088;SDS011;7120;52.890;6.040;2023-01-20T01:32:25;80.57;;;74.73;;
14088;SDS011;7120;52.890;6.040;2023-01-20T01:34:51;135.20;;;127.33;;
14088;SDS011;7120;52.890;6.040;2023-01-20T01:37:16;144.03;;;136.10;;
14088;SDS011;7120;52.890;6.040;2023-01-20T01:39:41;141.47;;;133.67;;
14088;SDS011;7120;52.890;6.040;2023-01-20T01:42:10;167.77;;;158.80;;
14088;SDS011;7120;52.890;6.040;2023-01-20T01:50:04;165.47;;;155.83;;
14088;SDS011;7120;52.890;6.040;2023-01-20T01:52:31;145.27;;;136.60;;
14088;SDS011;7120;52.890;6.040;2023-01-20T01:54:57;91.23;;;84.87;;
14088;SDS011;7120;52.890;6.040;2023-01-20T01:57:23;149.27;;;140.63;;
14088;SDS011;7120;52.890;6.040;2023-01-20T01:59:49;180.77;;;170.30;;
14088;SDS011;7120;52.890;6.040;2023-01-20T02:02:15;120.07;;;112.43;;
14088;SDS011;7120;52.890;6.040;2023-01-20T02:04:40;137.23;;;128.40;;
14088;SDS011;7120;52.890;6.040;2023-01-20T02:07:13;147.57;;;138.70;;
14088;SDS011;7120;52.890;6.040;2023-01-20T02:09:43;151.47;;;141.50;;
14088;SDS011;7120;52.890;6.040;2023-01-20T02:12:09;84.40;;;77.70;;
14088;SDS011;7120;52.890;6.040;2023-01-20T02:14:39;117.30;;;108.83;;
14088;SDS011;7120;52.890;6.040;2023-01-20T02:25:27;176.70;;;165.83;;
14088;SDS011;7120;52.890;6.040;2023-01-20T02:34:12;62.20;;;50.00;;
14088;SDS011;7120;52.890;6.040;2023-01-20T02:36:28;88.77;;;80.10;;
14088;SDS011;7120;52.890;6.040;2023-01-20T02:47:02;94.87;;;85.17;;
14088;SDS011;7120;52.890;6.040;2023-01-20T02:52:25;102.70;;;91.57;;
14088;SDS011;7120;52.890;6.040;2023-01-20T02:54:55;106.50;;;95.40;;
14088;SDS011;7120;52.890;6.040;2023-01-20T02:57:42;111.67;;;100.17;;
14088;SDS011;7120;52.890;6.040;2023-01-20T03:00:14;91.27;;;77.73;;
14088;SDS011;7120;52.890;6.040;2023-01-20T03:02:43;134.27;;;121.50;;
14088;SDS011;7120;52.890;6.040;2023-01-20T03:05:12;90.03;;;62.00;;
14088;SDS011;7120;52.890;6.040;2023-01-20T03:07:42;105.23;;;94.13;;
14088;SDS011;7120;52.890;6.040;2023-01-20T03:10:10;162.23;;;148.57;;
14088;SDS011;7120;52.890;6.040;2023-01-20T03:16:21;168.13;;;153.33;;
14088;SDS011;7120;52.890;6.040;2023-01-20T03:18:37;134.10;;;121.77;;
14088;SDS011;7120;52.890;6.040;2023-01-20T03:21:04;139.57;;;126.60;;
14088;SDS011;7120;52.890;6.040;2023-01-20T03:23:33;128.40;;;110.77;;
14088;SDS011;7120;52.890;6.040;2023-01-20T03:26:06;138.13;;;117.13;;
14088;SDS011;7120;52.890;6.040;2023-01-20T03:28:33;97.60;;;48.30;;
14088;SDS011;7120;52.890;6.040;2023-01-20T03:30:59;138.13;;;124.07;;
14088;SDS011;7120;52.890;6.040;2023-01-20T03:33:28;111.23;;;95.97;;
14088;SDS011;7120;52.890;6.040;2023-01-20T03:35:53;100.80;;;69.27;;
14088;SDS011;7120;52.890;6.040;2023-01-20T03:38:19;88.60;;;52.13;;
14088;SDS011;7120;52.890;6.040;2023-01-20T03:41:05;158.77;;;143.87;;
14088;SDS011;7120;52.890;6.040;2023-01-20T03:46:31;106.70;;;71.87;;
14088;SDS011;7120;52.890;6.040;2023-01-20T03:49:02;117.97;;;93.17;;
14088;SDS011;7120;52.890;6.040;2023-01-20T03:51:43;156.43;;;102.27;;
14088;SDS011;7120;52.890;6.040;2023-01-20T03:54:42;145.70;;;118.77;;
14088;SDS011;7120;52.890;6.040;2023-01-20T03:57:15;149.97;;;83.80;;
14088;SDS011;7120;52.890;6.040;2023-01-20T03:59:44;180.90;;;124.63;;
14088;SDS011;7120;52.890;6.040;2023-01-20T04:02:13;150.37;;;57.70;;
14088;SDS011;7120;52.890;6.040;2023-01-20T04:04:39;177.13;;;90.30;;
14088;SDS011;7120;52.890;6.040;2023-01-20T04:07:08;140.53;;;65.07;;
14088;SDS011;7120;52.890;6.040;2023-01-20T04:09:41;220.43;;;185.67;;
14088;SDS011;7120;52.890;6.040;2023-01-20T04:12:11;135.90;;;65.70;;
14088;SDS011;7120;52.890;6.040;2023-01-20T04:14:37;155.37;;;117.23;;
14088;SDS011;7120;52.890;6.040;2023-01-20T04:17:02;172.60;;;121.13;;
14088;SDS011;7120;52.890;6.040;2023-01-20T04:19:29;166.40;;;93.60;;
14088;SDS011;7120;52.890;6.040;2023-01-20T04:22:05;148.83;;;76.57;;
14088;SDS011;7120;52.890;6.040;2023-01-20T04:27:38;180.77;;;124.73;;
14088;SDS011;7120;52.890;6.040;2023-01-20T04:30:04;178.60;;;102.33;;
14088;SDS011;7120;52.890;6.040;2023-01-20T04:32:30;292.60;;;261.63;;
14088;SDS011;7120;52.890;6.040;2023-01-20T04:34:55;161.93;;;92.93;;
14088;SDS011;7120;52.890;6.040;2023-01-20T04:37:20;176.77;;;104.10;;
14088;SDS011;7120;52.890;6.040;2023-01-20T04:39:46;155.20;;;69.70;;
14088;SDS011;7120;52.890;6.040;2023-01-20T04:42:11;159.03;;;95.93;;
14088;SDS011;7120;52.890;6.040;2023-01-20T04:44:36;159.20;;;138.60;;
14088;SDS011;7120;52.890;6.040;2023-01-20T04:47:02;180.90;;;104.97;;
14088;SDS011;7120;52.890;6.040;2023-01-20T04:49:27;170.33;;;119.77;;
14088;SDS011;7120;52.890;6.040;2023-01-20T04:51:53;171.13;;;125.40;;
14088;SDS011;7120;52.890;6.040;2023-01-20T04:54:18;261.93;;;236.67;;
14088;SDS011;7120;52.890;6.040;2023-01-20T04:56:43;151.87;;;59.57;;
14088;SDS011;7120;52.890;6.040;2023-01-20T04:59:09;167.17;;;94.03;;
14088;SDS011;7120;52.890;6.040;2023-01-20T05:01:35;170.77;;;111.27;;
14088;SDS011;7120;52.890;6.040;2023-01-20T05:04:00;164.73;;;67.20;;
14088;SDS011;7120;52.890;6.040;2023-01-20T05:06:25;172.27;;;95.50;;
14088;SDS011;7120;52.890;6.040;2023-01-20T05:08:51;174.77;;;135.33;;
14088;SDS011;7120;52.890;6.040;2023-01-20T05:11:16;161.43;;;106.70;;
14088;SDS011;7120;52.890;6.040;2023-01-20T05:13:42;139.53;;;78.90;;
14088;SDS011;7120;52.890;6.040;2023-01-20T05:16:07;166.90;;;108.70;;
14088;SDS011;7120;52.890;6.040;2023-01-20T05:18:34;271.63;;;238.70;;
14088;SDS011;7120;52.890;6.040;2023-01-20T05:20:59;189.83;;;130.93;;
14088;SDS011;7120;52.890;6.040;2023-01-20T05:23:25;309.70;;;282.63;;
14088;SDS011;7120;52.890;6.040;2023-01-20T05:25:51;165.47;;;129.67;;
14088;SDS011;7120;52.890;6.040;2023-01-20T05:28:17;187.60;;;148.13;;
14088;SDS011;7120;52.890;6.040;2023-01-20T05:30:43;164.87;;;111.23;;
14088;SDS011;7120;52.890;6.040;2023-01-20T05:33:09;180.07;;;122.67;;
14088;SDS011;7120;52.890;6.040;2023-01-20T05:35:38;182.57;;;113.17;;
14088;SDS011;7120;52.890;6.040;2023-01-20T05:38:04;166.13;;;101.73;;
14088;SDS011;7120;52.890;6.040;2023-01-20T05:40:29;170.60;;;117.83;;
14088;SDS011;7120;52.890;6.040;2023-01-20T05:43:01;202.43;;;146.47;;
14088;SDS011;7120;52.890;6.040;2023-01-20T05:45:27;215.13;;;185.17;;
14088;SDS011;7120;52.890;6.040;2023-01-20T05:47:54;175.37;;;113.80;;
14088;SDS011;7120;52.890;6.040;2023-01-20T05:50:20;179.73;;;140.37;;
14088;SDS011;7120;52.890;6.040;2023-01-20T05:52:45;178.03;;;85.53;;
14088;SDS011;7120;52.890;6.040;2023-01-20T05:55:11;189.83;;;90.30;;
14088;SDS011;7120;52.890;6.040;2023-01-20T05:57:36;221.10;;;138.10;;
14088;SDS011;7120;52.890;6.040;2023-01-20T06:00:02;199.03;;;135.60;;
14088;SDS011;7120;52.890;6.040;2023-01-20T06:02:29;196.17;;;127.23;;
14088;SDS011;7120;52.890;6.040;2023-01-20T06:04:55;218.30;;;140.63;;
14088;SDS011;7120;52.890;6.040;2023-01-20T06:07:20;223.23;;;145.97;;
14088;SDS011;7120;52.890;6.040;2023-01-20T06:09:46;249.00;;;173.90;;
14088;SDS011;7120;52.890;6.040;2023-01-20T06:12:11;209.63;;;127.67;;
14088;SDS011;7120;52.890;6.040;2023-01-20T06:14:36;209.53;;;98.43;;
14088;SDS011;7120;52.890;6.040;2023-01-20T06:17:02;235.43;;;163.40;;
14088;SDS011;7120;52.890;6.040;2023-01-20T06:19:27;202.53;;;86.20;;
14088;SDS011;7120;52.890;6.040;2023-01-20T06:21:52;214.17;;;98.73;;
14088;SDS011;7120;52.890;6.040;2023-01-20T06:24:18;219.50;;;118.27;;
14088;SDS011;7120;52.890;6.040;2023-01-20T06:26:44;241.27;;;155.27;;
14088;SDS011;7120;52.890;6.040;2023-01-20T06:29:09;202.60;;;86.63;;
14088;SDS011;7120;52.890;6.040;2023-01-20T06:31:34;191.37;;;71.57;;
14088;SDS011;7120;52.890;6.040;2023-01-20T06:34:00;214.63;;;90.57;;
14088;SDS011;7120;52.890;6.040;2023-01-20T06:36:25;246.90;;;138.33;;
14088;SDS011;7120;52.890;6.040;2023-01-20T06:38:50;222.60;;;144.73;;
14088;SDS011;7120;52.890;6.040;2023-01-20T06:41:17;241.40;;;115.20;;
14088;SDS011;7120;52.890;6.040;2023-01-20T06:43:43;222.87;;;141.60;;
14088;SDS011;7120;52.890;6.040;2023-01-20T06:46:10;210.37;;;121.47;;
14088;SDS011;7120;52.890;6.040;2023-01-20T06:48:37;240.03;;;198.97;;
14088;SDS011;7120;52.890;6.040;2023-01-20T06:51:20;226.53;;;133.00;;
14088;SDS011;7120;52.890;6.040;2023-01-20T06:53:45;205.77;;;129.83;;
14088;SDS011;7120;52.890;6.040;2023-01-20T06:56:11;198.93;;;119.83;;
14088;SDS011;7120;52.890;6.040;2023-01-20T06:58:38;204.73;;;151.73;;
14088;SDS011;7120;52.890;6.040;2023-01-20T07:01:14;204.63;;;134.33;;
14088;SDS011;7120;52.890;6.040;2023-01-20T07:03:44;234.97;;;154.13;;
14088;SDS011;7120;52.890;6.040;2023-01-20T07:06:16;215.80;;;130.20;;
14088;SDS011;7120;52.890;6.040;2023-01-20T07:08:46;214.97;;;154.60;;
14088;SDS011;7120;52.890;6.040;2023-01-20T07:11:12;205.83;;;136.93;;
14088;SDS011;7120;52.890;6.040;2023-01-20T07:13:37;182.93;;;115.33;;
14088;SDS011;7120;52.890;6.040;2023-01-20T07:16:03;195.43;;;115.87;;
14088;SDS011;7120;52.890;6.040;2023-01-20T07:18:28;222.93;;;169.13;;
14088;SDS011;7120;52.890;6.040;2023-01-20T07:20:54;209.80;;;156.67;;
14088;SDS011;7120;52.890;6.040;2023-01-20T07:23:20;236.63;;;165.87;;
14088;SDS011;7120;52.890;6.040;2023-01-20T07:25:46;207.03;;;145.17;;
14088;SDS011;7120;52.890;6.040;2023-01-20T07:28:12;200.83;;;120.17;;
14088;SDS011;7120;52.890;6.040;2023-01-20T07:30:37;222.40;;;151.23;;
14088;SDS011;7120;52.890;6.040;2023-01-20T07:33:03;209.97;;;140.37;;
14088;SDS011;7120;52.890;6.040;2023-01-20T07:35:29;188.27;;;107.83;;
14088;SDS011;7120;52.890;6.040;2023-01-20T07:37:56;209.67;;;150.97;;
14088;SDS011;7120;52.890;6.040;2023-01-20T07:40:22;227.10;;;185.83;;
14088;SDS011;7120;52.890;6.040;2023-01-20T07:42:47;221.60;;;182.97;;
14088;SDS011;7120;52.890;6.040;2023-01-20T07:45:12;207.30;;;154.00;;
14088;SDS011;7120;52.890;6.040;2023-01-20T07:47:38;196.80;;;152.10;;
14088;SDS011;7120;52.890;6.040;2023-01-20T07:50:03;188.03;;;96.83;;
14088;SDS011;7120;52.890;6.040;2023-01-20T07:52:29;183.27;;;96.20;;
14088;SDS011;7120;52.890;6.040;2023-01-20T07:54:54;198.83;;;131.67;;
14088;SDS011;7120;52.890;6.040;2023-01-20T07:57:20;213.60;;;162.37;;
14088;SDS011;7120;52.890;6.040;2023-01-20T07:59:45;266.23;;;239.47;;
14088;SDS011;7120;52.890;6.040;2023-01-20T08:02:10;214.90;;;178.80;;
14088;SDS011;7120;52.890;6.040;2023-01-20T08:04:36;197.83;;;116.73;;
14088;SDS011;7120;52.890;6.040;2023-01-20T08:07:01;206.63;;;145.93;;
14088;SDS011;7120;52.890;6.040;2023-01-20T08:09:27;240.57;;;214.87;;
14088;SDS011;7120;52.890;6.040;2023-01-20T08:11:53;176.37;;;82.10;;
14088;SDS011;7120;52.890;6.040;2023-01-20T08:14:18;157.57;;;75.03;;
14088;SDS011;7120;52.890;6.040;2023-01-20T08:16:43;205.30;;;154.07;;
14088;SDS011;7120;52.890;6.040;2023-01-20T08:19:09;310.43;;;282.43;;
14088;SDS011;7120;52.890;6.040;2023-01-20T08:21:34;218.23;;;189.93;;
14088;SDS011;7120;52.890;6.040;2023-01-20T08:24:00;325.17;;;297.20;;
14088;SDS011;7120;52.890;6.040;2023-01-20T08:26:29;213.73;;;169.40;;
14088;SDS011;7120;52.890;6.040;2023-01-20T08:29:00;239.33;;;215.00;;
14088;SDS011;7120;52.890;6.040;2023-01-20T08:31:27;233.63;;;210.13;;
14088;SDS011;7120;52.890;6.040;2023-01-20T08:33:53;237.40;;;214.10;;
14088;SDS011;7120;52.890;6.040;2023-01-20T08:36:21;245.53;;;222.00;;
14088;SDS011;7120;52.890;6.040;2023-01-20T08:38:49;206.83;;;185.37;;
14088;SDS011;7120;52.890;6.040;2023-01-20T08:41:15;162.10;;;142.10;;
14088;SDS011;7120;52.890;6.040;2023-01-20T08:43:42;232.47;;;210.87;;
14088;SDS011;7120;52.890;6.040;2023-01-20T08:46:09;197.97;;;176.57;;
14088;SDS011;7120;52.890;6.040;2023-01-20T08:48:36;227.90;;;206.60;;
14088;SDS011;7120;52.890;6.040;2023-01-20T08:51:07;285.40;;;261.40;;
14088;SDS011;7120;52.890;6.040;2023-01-20T08:53:34;222.23;;;201.60;;
14088;SDS011;7120;52.890;6.040;2023-01-20T08:56:00;194.27;;;174.57;;
14088;SDS011;7120;52.890;6.040;2023-01-20T08:58:27;226.00;;;204.47;;
14088;SDS011;7120;52.890;6.040;2023-01-20T09:00:53;246.30;;;224.13;;
14088;SDS011;7120;52.890;6.040;2023-01-20T09:03:20;384.93;;;355.87;;
14088;SDS011;7120;52.890;6.040;2023-01-20T09:05:46;249.13;;;227.63;;
14088;SDS011;7120;52.890;6.040;2023-01-20T09:08:13;235.03;;;214.87;;
14088;SDS011;7120;52.890;6.040;2023-01-20T09:10:38;222.60;;;203.27;;
14088;SDS011;7120;52.890;6.040;2023-01-20T09:13:04;227.63;;;207.67;;
14088;SDS011;7120;52.890;6.040;2023-01-20T09:15:30;291.47;;;267.47;;
14088;SDS011;7120;52.890;6.040;2023-01-20T09:17:56;237.47;;;218.10;;
14088;SDS011;7120;52.890;6.040;2023-01-20T09:20:22;261.10;;;239.70;;
14088;SDS011;7120;52.890;6.040;2023-01-20T09:22:48;248.90;;;229.43;;
14088;SDS011;7120;52.890;6.040;2023-01-20T09:25:14;341.33;;;315.07;;
14088;SDS011;7120;52.890;6.040;2023-01-20T09:27:39;227.63;;;209.13;;
14088;SDS011;7120;52.890;6.040;2023-01-20T09:30:04;211.53;;;194.43;;
14088;SDS011;7120;52.890;6.040;2023-01-20T09:32:30;187.73;;;171.67;;
14088;SDS011;7120;52.890;6.040;2023-01-20T09:34:56;225.70;;;208.67;;
14088;SDS011;7120;52.890;6.040;2023-01-20T09:37:22;229.53;;;212.77;;
14088;SDS011;7120;52.890;6.040;2023-01-20T09:40:16;183.37;;;168.63;;
14088;SDS011;7120;52.890;6.040;2023-01-20T09:43:10;274.40;;;253.43;;
14088;SDS011;7120;52.890;6.040;2023-01-20T09:46:09;398.13;;;373.50;;
14088;SDS011;7120;52.890;6.040;2023-01-20T09:55:37;243.17;;;227.37;;
14088;SDS011;7120;52.890;6.040;2023-01-20T09:57:47;229.53;;;214.17;;
14088;SDS011;7120;52.890;6.040;2023-01-20T10:00:23;268.77;;;251.73;;
14088;SDS011;7120;52.890;6.040;2023-01-20T10:02:55;316.20;;;293.90;;
14088;SDS011;7120;52.890;6.040;2023-01-20T10:05:30;264.37;;;248.53;;
14088;SDS011;7120;52.890;6.040;2023-01-20T10:08:02;205.20;;;191.60;;
14088;SDS011;7120;52.890;6.040;2023-01-20T10:13:29;226.00;;;211.50;;
14088;SDS011;7120;52.890;6.040;2023-01-20T10:15:57;155.93;;;145.30;;
14088;SDS011;7120;52.890;6.040;2023-01-20T10:18:32;273.13;;;257.03;;
14088;SDS011;7120;52.890;6.040;2023-01-20T10:21:10;223.23;;;210.03;;
14088;SDS011;7120;52.890;6.040;2023-01-20T10:23:49;256.33;;;241.37;;
14088;SDS011;7120;52.890;6.040;2023-01-20T10:29:00;460.60;;;434.33;;
14088;SDS011;7120;52.890;6.040;2023-01-20T10:31:28;310.63;;;293.37;;
14088;SDS011;7120;52.890;6.040;2023-01-20T10:33:59;270.63;;;254.63;;
14088;SDS011;7120;52.890;6.040;2023-01-20T10:36:33;242.90;;;228.40;;
14088;SDS011;7120;52.890;6.040;2023-01-20T10:39:03;326.17;;;308.33;;
14088;SDS011;7120;52.890;6.040;2023-01-20T10:41:46;232.37;;;218.60;;
14088;SDS011;7120;52.890;6.040;2023-01-20T10:44:15;210.57;;;197.83;;
14088;SDS011;7120;52.890;6.040;2023-01-20T10:46:45;234.97;;;221.00;;
14088;SDS011;7120;52.890;6.040;2023-01-20T10:54:53;390.97;;;370.23;;
14088;SDS011;7120;52.890;6.040;2023-01-20T10:57:30;318.53;;;301.47;;
14088;SDS011;7120;52.890;6.040;2023-01-20T10:59:58;339.87;;;321.80;;
14088;SDS011;7120;52.890;6.040;2023-01-20T11:02:31;300.00;;;283.67;;
14088;SDS011;7120;52.890;6.040;2023-01-20T11:05:03;341.47;;;324.60;;
14088;SDS011;7120;52.890;6.040;2023-01-20T11:07:40;301.10;;;285.67;;
14088;SDS011;7120;52.890;6.040;2023-01-20T11:12:39;328.27;;;311.27;;
14088;SDS011;7120;52.890;6.040;2023-01-20T11:15:52;337.40;;;320.97;;
14088;SDS011;7120;52.890;6.040;2023-01-20T11:23:37;348.00;;;330.50;;
14088;SDS011;7120;52.890;6.040;2023-01-20T11:28:58;359.97;;;342.13;;
14088;SDS011;7120;52.890;6.040;2023-01-20T11:31:38;328.80;;;311.83;;
14088;SDS011;7120;52.890;6.040;2023-01-20T11:36:43;625.50;;;585.90;;
14088;SDS011;7120;52.890;6.040;2023-01-20T11:39:22;313.43;;;297.80;;
14088;SDS011;7120;52.890;6.040;2023-01-20T11:42:07;367.67;;;350.07;;
14088;SDS011;7120;52.890;6.040;2023-01-20T11:47:20;496.17;;;472.20;;
14088;SDS011;7120;52.890;6.040;2023-01-20T11:50:03;442.63;;;421.43;;
14088;SDS011;7120;52.890;6.040;2023-01-20T11:52:39;441.77;;;421.03;;
14088;SDS011;7120;52.890;6.040;2023-01-20T11:57:41;476.57;;;453.40;;
14088;SDS011;7120;52.890;6.040;2023-01-20T12:00:35;457.70;;;435.90;;
14088;SDS011;7120;52.890;6.040;2023-01-20T12:06:06;469.40;;;447.10;;
14088;SDS011;7120;52.890;6.040;2023-01-20T12:09:00;390.50;;;371.97;;
14088;SDS011;7120;52.890;6.040;2023-01-20T12:11:30;422.30;;;402.47;;
14088;SDS011;7120;52.890;6.040;2023-01-20T12:16:47;414.00;;;393.77;;
14088;SDS011;7120;52.890;6.040;2023-01-20T12:19:19;449.47;;;428.40;;
14088;SDS011;7120;52.890;6.040;2023-01-20T12:21:51;500.10;;;475.43;;
14088;SDS011;7120;52.890;6.040;2023-01-20T12:24:29;443.43;;;422.17;;
14088;SDS011;7120;52.890;6.040;2023-01-20T12:27:22;440.30;;;418.87;;
14088;SDS011;7120;52.890;6.040;2023-01-20T12:29:52;410.10;;;390.47;;
14088;SDS011;7120;52.890;6.040;2023-01-20T12:32:21;437.00;;;416.23;;
14088;SDS011;7120;52.890;6.040;2023-01-20T12:34:46;441.97;;;420.83;;
14088;SDS011;7120;52.890;6.040;2023-01-20T12:37:55;463.47;;;441.17;;
14088;SDS011;7120;52.890;6.040;2023-01-20T12:40:19;472.83;;;449.27;;
14088;SDS011;7120;52.890;6.040;2023-01-20T12:45:42;408.03;;;388.80;;
14088;SDS011;7120;52.890;6.040;2023-01-20T12:51:27;422.03;;;401.20;;
14088;SDS011;7120;52.890;6.040;2023-01-20T13:15:24;414.57;;;394.87;;
14088;SDS011;7120;52.890;6.040;2023-01-20T13:20:42;425.60;;;405.83;;
14088;SDS011;7120;52.890;6.040;2023-01-20T13:23:13;403.33;;;384.43;;
14088;SDS011;7120;52.890;6.040;2023-01-20T13:25:42;413.50;;;393.73;;
14088;SDS011;7120;52.890;6.040;2023-01-20T13:28:14;427.70;;;408.00;;
14088;SDS011;7120;52.890;6.040;2023-01-20T13:36:14;447.77;;;426.50;;
14088;SDS011;7120;52.890;6.040;2023-01-20T13:38:48;423.33;;;404.10;;
14088;SDS011;7120;52.890;6.040;2023-01-20T13:41:45;500.50;;;473.40;;
14088;SDS011;7120;52.890;6.040;2023-01-20T13:44:35;417.67;;;398.70;;
14088;SDS011;7120;52.890;6.040;2023-01-20T13:47:00;407.17;;;388.30;;
14088;SDS011;7120;52.890;6.040;2023-01-20T13:49:49;455.03;;;433.90;;
14088;SDS011;7120;52.890;6.040;2023-01-20T13:52:22;396.63;;;378.73;;
14088;SDS011;7120;52.890;6.040;2023-01-20T13:58:11;321.53;;;307.03;;
14088;SDS011;7120;52.890;6.040;2023-01-20T14:00:37;310.47;;;296.43;;
14088;SDS011;7120;52.890;6.040;2023-01-20T14:05:51;359.10;;;342.93;;
14088;SDS011;7120;52.890;6.040;2023-01-20T14:08:17;337.03;;;321.73;;
14088;SDS011;7120;52.890;6.040;2023-01-20T14:10:44;375.90;;;358.90;;
14088;SDS011;7120;52.890;6.040;2023-01-20T14:13:22;404.87;;;386.17;;
14088;SDS011;7120;52.890;6.040;2023-01-20T14:15:52;275.47;;;262.63;;
14088;SDS011;7120;52.890;6.040;2023-01-20T14:18:23;340.90;;;325.57;;
14088;SDS011;7120;52.890;6.040;2023-01-20T14:23:26;370.07;;;353.20;;
14088;SDS011;7120;52.890;6.040;2023-01-20T14:26:00;236.97;;;225.50;;
14088;SDS011;7120;52.890;6.040;2023-01-20T14:28:27;283.60;;;270.50;;
14088;SDS011;7120;52.890;6.040;2023-01-20T14:31:12;346.67;;;330.97;;
14088;SDS011;7120;52.890;6.040;2023-01-20T14:33:54;254.00;;;241.97;;
14088;SDS011;7120;52.890;6.040;2023-01-20T14:36:25;322.43;;;307.80;;
14088;SDS011;7120;52.890;6.040;2023-01-20T14:38:55;349.60;;;333.80;;
14088;SDS011;7120;52.890;6.040;2023-01-20T14:41:29;347.73;;;331.90;;
14088;SDS011;7120;52.890;6.040;2023-01-20T14:43:59;300.37;;;283.27;;
14088;SDS011;7120;52.890;6.040;2023-01-20T14:46:26;287.23;;;274.17;;
14088;SDS011;7120;52.890;6.040;2023-01-20T14:48:53;312.60;;;298.17;;
14088;SDS011;7120;52.890;6.040;2023-01-20T14:51:20;266.73;;;253.70;;
14088;SDS011;7120;52.890;6.040;2023-01-20T14:53:46;305.20;;;290.40;;
14088;SDS011;7120;52.890;6.040;2023-01-20T14:56:50;214.30;;;204.07;;
14088;SDS011;7120;52.890;6.040;2023-01-20T14:59:18;249.27;;;237.23;;
14088;SDS011;7120;52.890;6.040;2023-01-20T15:01:49;322.43;;;307.03;;
14088;SDS011;7120;52.890;6.040;2023-01-20T15:04:16;295.03;;;281.50;;
14088;SDS011;7120;52.890;6.040;2023-01-20T15:06:41;355.57;;;339.40;;
14088;SDS011;7120;52.890;6.040;2023-01-20T15:09:24;325.90;;;310.97;;
14088;SDS011;7120;52.890;6.040;2023-01-20T15:17:31;251.87;;;239.57;;
14088;SDS011;7120;52.890;6.040;2023-01-20T15:19:57;237.73;;;226.47;;
14088;SDS011;7120;52.890;6.040;2023-01-20T15:22:22;357.90;;;340.20;;
14088;SDS011;7120;52.890;6.040;2023-01-20T15:24:51;221.00;;;210.50;;
14088;SDS011;7120;52.890;6.040;2023-01-20T15:27:21;250.97;;;239.03;;
14088;SDS011;7120;52.890;6.040;2023-01-20T15:32:35;274.50;;;261.90;;
14088;SDS011;7120;52.890;6.040;2023-01-20T15:35:00;287.53;;;274.17;;
14088;SDS011;7120;52.890;6.040;2023-01-20T15:37:26;337.00;;;321.70;;
14088;SDS011;7120;52.890;6.040;2023-01-20T15:39:52;401.47;;;382.53;;
14088;SDS011;7120;52.890;6.040;2023-01-20T15:42:18;447.17;;;424.53;;
14088;SDS011;7120;52.890;6.040;2023-01-20T15:44:44;351.73;;;334.30;;
14088;SDS011;7120;52.890;6.040;2023-01-20T15:47:18;322.27;;;307.27;;
14088;SDS011;7120;52.890;6.040;2023-01-20T15:49:46;292.13;;;278.33;;
14088;SDS011;7120;52.890;6.040;2023-01-20T15:52:11;366.03;;;349.37;;
14088;SDS011;7120;52.890;6.040;2023-01-20T15:54:37;298.60;;;284.87;;
14088;SDS011;7120;52.890;6.040;2023-01-20T15:57:02;302.20;;;288.23;;
14088;SDS011;7120;52.890;6.040;2023-01-20T15:59:35;529.63;;;490.87;;
14088;SDS011;7120;52.890;6.040;2023-01-20T16:02:01;342.57;;;326.83;;
14088;SDS011;7120;52.890;6.040;2023-01-20T16:04:26;234.53;;;223.37;;
14088;SDS011;7120;52.890;6.040;2023-01-20T16:06:52;241.17;;;229.70;;
14088;SDS011;7120;52.890;6.040;2023-01-20T16:09:20;247.20;;;235.47;;
14088;SDS011;7120;52.890;6.040;2023-01-20T16:11:50;275.23;;;262.30;;
14088;SDS011;7120;52.890;6.040;2023-01-20T16:14:16;228.97;;;218.23;;
14088;SDS011;7120;52.890;6.040;2023-01-20T16:16:41;224.93;;;213.97;;
14088;SDS011;7120;52.890;6.040;2023-01-20T16:19:08;226.07;;;215.00;;
14088;SDS011;7120;52.890;6.040;2023-01-20T16:21:36;213.50;;;202.60;;
14088;SDS011;7120;52.890;6.040;2023-01-20T16:24:01;254.90;;;242.23;;
14088;SDS011;7120;52.890;6.040;2023-01-20T16:26:28;243.60;;;231.40;;
14088;SDS011;7120;52.890;6.040;2023-01-20T16:28:56;288.93;;;275.33;;
14088;SDS011;7120;52.890;6.040;2023-01-20T16:31:22;328.97;;;313.43;;
14088;SDS011;7120;52.890;6.040;2023-01-20T16:33:49;223.30;;;212.13;;
14088;SDS011;7120;52.890;6.040;2023-01-20T16:36:15;240.00;;;228.43;;